CBBC

Bella Bella / Campbell Island Airport

Bella Bella, , Canada
METAR CBBC 201103Z AUTO 14006KT 110V180 9SM OVC055 06/05 A2986 RMK SLP115
Observed Flight Rules
Nov-20 @ 11:03 UTC (an hour ago) Visual Flight Rules
Wind Visibility Clouds
140° at 6 knots 9 miles
  • Overcast at 5,500' AGL
Temperatures Readings
Current 6°C / 43°F
Dewpoint 5°C / 41°F
Humidity 93%
Altimeter 29.86" Hg
Pressure 1011.5 hPa
Elevation 43
METAR CBBC 201103Z AUTO 14006KT 110V180 9SM OVC055 06/05 A2986 RMK SLP115
Observed Flight Rules
Nov-20 @ 11:03 UTC
(an hour ago)
VFR
Wind Visibility
140° at 6 knots 9 miles
Clouds
  • Overcast at 5,500' AGL
Temperature Dewpoint
6°C / 43°F 5°C / 41°F
Humidity Altimeter Pressure
93% 29.86" Hg 1011.5 hPa